Time;durP1;ratioP1;P1;durP2;ratioP2;P2;SDS_P1;SDS_P2;PMS_P1;PMS_P2;Temp;Humidity;BMP_temperature;BMP_pressure;BME280_temperature;BME280_humidity;BME280_pressure;Samples;Min_cycle;Max_cycle;Signal;HPM_P1;HPM_P2
2023/04/19 00:01:14;;;;;;;8.90;5.00;;;;;;;6.24;69.52;102272.50;5003599;28;20199;-85
2023/04/19 00:03:50;;;;;;;5.35;3.80;;;;;;;6.21;69.37;102262.03;5019039;28;20568;-85
2023/04/19 00:07:19;;;;;;;9.32;4.32;;;;;;;6.21;68.53;102267.38;5058672;28;20270;-85
2023/04/19 00:10:20;;;;;;;4.57;2.67;;;;;;;6.25;67.58;102259.88;5040306;28;20228;-85
2023/04/19 00:12:49;;;;;;;4.25;3.70;;;;;;;6.29;67.20;102255.94;5038499;28;20203;-83
2023/04/19 00:15:21;;;;;;;4.97;3.17;;;;;;;6.27;66.73;102255.22;5031014;28;20196;-86
2023/04/19 00:17:51;;;;;;;5.72;2.90;;;;;;;6.26;66.44;102249.00;5037394;28;20193;-85
2023/04/19 00:27:10;;;;;;;2.42;2.22;;;;;;;6.35;64.81;102248.16;5044142;28;20265;-86
2023/04/19 00:29:40;;;;;;;5.75;3.15;;;;;;;6.33;64.86;102249.31;5042084;28;20250;-87
2023/04/19 00:35:26;;;;;;;8.45;2.80;;;;;;;6.32;64.39;102251.13;5032855;28;20202;-86
2023/04/19 00:42:10;;;;;;;3.70;2.83;;;;;;;6.15;64.40;102246.44;5037577;28;20274;-85
2023/04/19 00:45:48;;;;;;;6.25;3.55;;;;;;;6.09;64.88;102249.72;5039448;28;20219;-85
2023/04/19 00:52:13;;;;;;;7.32;3.83;;;;;;;5.98;65.23;102241.78;5055322;28;20192;-87
2023/04/19 00:54:43;;;;;;;5.97;3.78;;;;;;;5.90;65.38;102238.94;5054597;28;20602;-85
2023/04/19 00:57:15;;;;;;;6.53;2.97;;;;;;;5.83;65.72;102240.44;5055922;28;20200;-85
2023/04/19 01:00:26;;;;;;;3.60;2.92;;;;;;;5.79;65.64;102239.03;5011431;28;20204;-85
2023/04/19 01:02:57;;;;;;;4.47;3.33;;;;;;;5.73;65.54;102236.88;5040852;28;20213;-84
2023/04/19 01:05:47;;;;;;;6.63;3.08;;;;;;;5.66;66.15;102239.28;5058119;28;20618;-84
2023/04/19 01:08:20;;;;;;;6.20;3.20;;;;;;;5.61;65.92;102239.69;5041388;28;20231;-86
2023/04/19 01:11:23;;;;;;;5.13;3.67;;;;;;;5.61;65.45;102237.03;5046884;28;20191;-83
2023/04/19 01:14:02;;;;;;;6.60;3.63;;;;;;;5.56;65.58;102241.09;5049910;28;20527;-84
2023/04/19 01:16:32;;;;;;;4.10;2.80;;;;;;;5.45;65.72;102247.41;5050017;28;20195;-84
2023/04/19 01:19:04;;;;;;;8.07;3.30;;;;;;;5.38;66.03;102238.19;5066338;28;20257;-85
2023/04/19 01:21:33;;;;;;;4.70;3.25;;;;;;;5.37;65.89;102230.31;5049050;28;20223;-86
2023/04/19 01:24:03;;;;;;;5.78;3.63;;;;;;;5.30;66.55;102235.34;5052006;28;20246;-87
2023/04/19 01:26:32;;;;;;;4.20;3.13;;;;;;;5.27;66.78;102232.09;5051699;28;20214;-86
2023/04/19 01:29:04;;;;;;;4.45;2.40;;;;;;;5.28;66.38;102240.00;5052826;28;20211;-86
2023/04/19 01:31:33;;;;;;;5.18;3.25;;;;;;;5.20;66.79;102240.69;5052838;28;20206;-86
2023/04/19 01:34:07;;;;;;;5.25;2.97;;;;;;;5.15;67.09;102228.63;5051689;28;20223;-86
2023/04/19 01:40:29;;;;;;;4.03;3.60;;;;;;;5.07;67.54;102237.38;5069624;28;20215;-86
2023/04/19 01:44:04;;;;;;;9.18;4.05;;;;;;;5.05;67.50;102239.31;5050233;28;20209;-86
2023/04/19 01:50:37;;;;;;;5.93;4.15;;;;;;;4.98;67.87;102226.59;5015685;28;20199;-84
2023/04/19 01:54:06;;;;;;;3.70;2.55;;;;;;;4.93;68.22;102226.16;5017849;28;20192;-86
2023/04/19 02:00:14;;;;;;;4.50;3.08;;;;;;;4.85;68.59;102217.88;5038847;28;20221;-85
2023/04/19 02:19:22;;;;;;;9.68;3.47;;;;;;;4.59;70.32;102206.75;5041863;28;20318;-84
2023/04/19 02:25:56;;;;;;;6.85;3.75;;;;;;;4.44;71.38;102210.75;5075500;28;20692;-86
2023/04/19 02:29:33;;;;;;;6.18;3.58;;;;;;;4.35;71.86;102204.34;5059347;28;20249;-84
2023/04/19 02:32:46;;;;;;;3.60;3.15;;;;;;;4.29;72.25;102207.53;5060487;28;20203;-84
2023/04/19 02:39:37;;;;;;;4.03;3.33;;;;;;;4.20;73.17;102187.72;5085775;28;20286;-85
2023/04/19 02:50:20;;;;;;;3.95;3.03;;;;;;;4.03;74.72;102188.28;5065868;28;20290;-85
2023/04/19 03:11:14;;;;;;;5.80;2.70;;;;;;;3.73;78.33;102170.25;4977657;28;20679;-84
2023/04/19 03:17:46;;;;;;;7.38;2.55;;;;;;;3.69;79.07;102152.75;5030237;28;20203;-84
2023/04/19 03:29:13;;;;;;;8.95;2.72;;;;;;;3.46;81.59;102151.13;5015314;28;20224;-85
2023/04/19 03:39:05;;;;;;;2.75;2.45;;;;;;;3.36;83.24;102142.13;5017243;28;20228;-85
2023/04/19 03:45:38;;;;;;;3.95;3.28;;;;;;;3.29;84.36;102131.06;5020295;28;20227;-84
2023/04/19 03:55:54;;;;;;;3.65;2.72;;;;;;;3.18;86.65;102135.59;5073111;28;20199;-86
2023/04/19 03:59:31;;;;;;;5.53;2.63;;;;;;;3.16;86.97;102129.53;5051897;28;20230;-84
2023/04/19 04:06:53;;;;;;;4.72;2.88;;;;;;;3.18;87.52;102124.91;5070307;28;20197;-85
2023/04/19 04:10:17;;;;;;;9.30;3.53;;;;;;;3.15;87.99;102119.81;5075534;28;20233;-85
2023/04/19 04:16:55;;;;;;;4.85;2.55;;;;;;;3.21;88.66;102127.31;5025200;28;20287;-85
2023/04/19 04:21:03;;;;;;;7.13;2.90;;;;;;;3.22;88.74;102121.00;5044492;28;20203;-86
2023/04/19 04:44:51;;;;;;;4.72;2.45;;;;;;;6.79;73.26;102097.84;4996113;28;20213;-84
2023/04/19 04:55:36;;;;;;;4.68;2.72;;;;;;;7.06;71.17;102095.19;5019057;28;20265;-85
2023/04/19 04:58:55;;;;;;;7.68;3.30;;;;;;;7.45;70.46;102097.63;5034936;28;20330;-85
2023/04/19 05:02:21;;;;;;;4.10;2.65;;;;;;;7.34;70.33;102099.53;5026457;28;20204;-85
2023/04/19 05:05:41;;;;;;;4.57;2.35;;;;;;;7.29;70.59;102107.22;5037129;28;20213;-84
2023/04/19 05:08:52;;;;;;;11.27;3.47;;;;;;;7.75;68.60;102097.22;5021963;28;20704;-83
2023/04/19 05:11:45;;;;;;;6.57;4.05;;;;;;;6.66;71.67;102094.66;5028657;28;20208;-81
2023/04/19 05:14:58;;;;;;;6.68;2.65;;;;;;;5.29;79.08;102085.16;5048390;28;20231;-83
2023/04/19 05:18:08;;;;;;;8.90;5.72;;;;;;;4.62;83.46;102084.00;5029921;28;20209;-85
2023/04/19 05:28:18;;;;;;;4.28;2.95;;;;;;;4.24;88.01;102081.97;5054988;28;20213;-85
2023/04/19 05:34:38;;;;;;;4.70;2.88;;;;;;;4.38;87.25;102075.41;5065383;22;20223;-80
2023/04/19 05:37:07;;;;;;;4.00;2.55;;;;;;;4.50;87.70;102077.03;5043414;28;20242;-80
2023/04/19 05:39:37;;;;;;;4.50;2.20;;;;;;;4.57;86.92;102080.00;5061211;28;20202;-78
2023/04/19 05:42:08;;;;;;;3.50;2.20;;;;;;;4.65;86.85;102061.41;5058946;28;20210;-78
2023/04/19 05:44:37;;;;;;;5.38;2.45;;;;;;;4.63;86.28;102064.25;5054665;28;20208;-77
2023/04/19 05:47:07;;;;;;;5.13;2.47;;;;;;;4.71;86.02;102067.09;5059628;28;20192;-77
2023/04/19 05:49:57;;;;;;;3.28;2.75;;;;;;;4.80;85.87;102060.91;5058947;28;20194;-78
2023/04/19 05:52:31;;;;;;;7.55;3.00;;;;;;;4.94;85.41;102061.53;5019984;28;20184;-78
2023/04/19 05:55:01;;;;;;;7.55;2.70;;;;;;;5.15;84.60;102067.63;5020049;28;20221;-77
2023/04/19 05:57:33;;;;;;;3.88;3.45;;;;;;;4.98;84.16;102061.13;5035500;28;20205;-81
2023/04/19 06:00:03;;;;;;;2.30;1.77;;;;;;;5.06;83.98;102060.41;5032618;28;20413;-76
2023/04/19 06:02:44;;;;;;;2.60;2.00;;;;;;;5.18;83.64;102070.06;5033709;28;20200;-78
2023/04/19 06:05:15;;;;;;;2.40;2.20;;;;;;;5.25;82.87;102058.59;5033881;28;20630;-78
2023/04/19 06:07:44;;;;;;;2.10;1.90;;;;;;;5.29;83.00;102056.50;5031711;28;20597;-80
2023/04/19 06:10:23;;;;;;;2.90;2.35;;;;;;;5.43;82.52;102071.31;5023648;28;20200;-80
2023/04/19 06:12:58;;;;;;;3.20;2.03;;;;;;;5.53;82.20;102062.28;5023421;28;20193;-77
2023/04/19 06:15:29;;;;;;;2.65;1.88;;;;;;;5.54;81.34;102066.69;5022171;28;20200;-78
2023/04/19 06:17:58;;;;;;;6.30;2.95;;;;;;;5.72;80.83;102063.28;5039148;28;20459;-80
2023/04/19 06:20:28;;;;;;;4.18;2.22;;;;;;;5.90;79.71;102067.84;5032409;28;20204;-79
2023/04/19 06:22:57;;;;;;;8.13;2.50;;;;;;;6.14;79.27;102058.47;5052783;28;20194;-77
2023/04/19 06:25:26;;;;;;;4.07;3.67;;;;;;;6.30;78.57;102059.53;5055464;28;20208;-78
2023/04/19 06:27:55;;;;;;;3.58;3.28;;;;;;;6.15;78.16;102060.97;5047200;28;20196;-78
2023/04/19 06:30:26;;;;;;;11.68;10.63;;;;;;;6.19;77.90;102058.88;5028674;28;20201;-81
2023/04/19 06:32:55;;;;;;;8.35;7.60;;;;;;;6.25;77.14;102052.88;5027678;28;20208;-80
2023/04/19 06:35:25;;;;;;;3.22;2.92;;;;;;;6.51;76.39;102057.47;5020592;28;20233;-79
2023/04/19 06:37:54;;;;;;;3.50;2.88;;;;;;;6.83;75.39;102050.81;5032470;28;20229;-78
2023/04/19 06:40:23;;;;;;;5.80;3.53;;;;;;;6.95;74.39;102049.63;5020678;28;20192;-79
2023/04/19 06:42:53;;;;;;;4.65;2.20;;;;;;;6.80;73.34;102048.44;5023764;28;20192;-79
2023/04/19 06:45:22;;;;;;;5.50;4.20;;;;;;;6.91;73.78;102056.31;5035207;28;20222;-79
2023/04/19 06:47:53;;;;;;;4.25;2.45;;;;;;;7.31;72.13;102045.16;5040030;28;20179;-77
2023/04/19 06:50:23;;;;;;;3.35;2.13;;;;;;;7.35;70.85;102046.53;5019806;28;20209;-77
2023/04/19 06:52:52;;;;;;;10.18;3.17;;;;;;;7.26;70.45;102040.19;5018255;28;20191;-78
2023/04/19 06:55:21;;;;;;;3.38;3.08;;;;;;;7.42;70.24;102031.44;5031259;28;20220;-77
2023/04/19 06:57:50;;;;;;;5.35;3.22;;;;;;;7.50;68.82;102034.22;5036195;28;20220;-77
2023/04/19 07:00:20;;;;;;;4.95;1.90;;;;;;;7.80;68.63;102028.41;5035692;28;20205;-77
2023/04/19 07:02:50;;;;;;;3.33;2.10;;;;;;;7.86;66.90;102024.22;5021111;28;20195;-78
2023/04/19 07:05:22;;;;;;;2.67;2.20;;;;;;;7.76;65.90;102016.25;5034686;28;20692;-79
2023/04/19 07:07:51;;;;;;;7.18;2.20;;;;;;;7.80;64.22;102019.47;5041219;28;20194;-79
2023/04/19 07:10:20;;;;;;;4.68;2.55;;;;;;;7.94;65.04;102018.06;5040840;28;20219;-79
2023/04/19 07:12:49;;;;;;;7.63;2.53;;;;;;;8.04;65.11;102016.94;5025489;28;20202;-79
2023/04/19 07:15:18;;;;;;;2.50;1.98;;;;;;;8.15;63.06;102002.34;5019977;28;20208;-78
2023/04/19 07:17:48;;;;;;;9.43;2.30;;;;;;;8.15;63.09;102003.19;5020100;28;20210;-77
2023/04/19 07:20:17;;;;;;;2.47;1.63;;;;;;;8.25;62.70;101998.53;5034981;28;20199;-78
2023/04/19 07:22:48;;;;;;;6.43;2.00;;;;;;;8.41;61.59;101991.59;5039762;28;20318;-78
2023/04/19 07:25:17;;;;;;;4.47;1.90;;;;;;;8.38;61.00;101997.28;5027838;28;20227;-79
2023/04/19 07:27:46;;;;;;;5.65;2.20;;;;;;;8.62;61.02;101995.53;5034221;28;20206;-78
2023/04/19 07:30:16;;;;;;;6.93;2.58;;;;;;;8.74;59.60;102004.19;5038344;28;20179;-78
2023/04/19 07:32:45;;;;;;;5.22;2.13;;;;;;;8.97;59.91;102005.28;5035458;28;20187;-78
2023/04/19 07:35:14;;;;;;;6.57;2.40;;;;;;;8.94;58.75;101997.50;5034334;28;20580;-76
2023/04/19 07:37:44;;;;;;;2.88;1.90;;;;;;;9.13;57.62;101993.66;5013406;28;20211;-79
2023/04/19 07:40:15;;;;;;;4.53;2.25;;;;;;;9.23;57.83;101991.66;5020418;28;20307;-78
2023/04/19 07:42:44;;;;;;;4.05;2.38;;;;;;;9.25;56.97;101981.53;5041842;28;20242;-78
2023/04/19 07:45:13;;;;;;;3.42;1.80;;;;;;;9.39;56.04;101977.34;5039929;28;20229;-79
2023/04/19 07:47:42;;;;;;;10.85;2.53;;;;;;;9.49;55.49;101967.19;5041470;28;20172;-79
2023/04/19 07:50:12;;;;;;;3.25;1.83;;;;;;;9.25;55.16;101975.28;5028369;28;20195;-79
2023/04/19 07:52:41;;;;;;;4.40;2.33;;;;;;;9.31;55.22;101966.50;5027362;28;20202;-78
2023/04/19 07:55:10;;;;;;;5.20;3.55;;;;;;;9.35;55.06;101979.50;5029430;28;20212;-77
2023/04/19 07:57:44;;;;;;;2.70;1.98;;;;;;;9.27;54.55;101959.75;5035352;28;20204;-77
2023/04/19 08:00:15;;;;;;;7.15;2.22;;;;;;;9.47;54.20;101969.22;5041682;28;20236;-77
2023/04/19 08:02:45;;;;;;;6.07;2.00;;;;;;;9.85;52.97;101968.50;5031015;28;20226;-78
2023/04/19 08:05:16;;;;;;;3.90;2.35;;;;;;;9.74;51.96;101966.16;5030301;28;20226;-79
2023/04/19 08:07:46;;;;;;;5.05;2.20;;;;;;;9.86;52.13;101964.81;5031225;28;20256;-77
2023/04/19 08:10:16;;;;;;;2.88;1.65;;;;;;;9.82;52.05;101963.47;5035125;28;20192;-78
2023/04/19 08:12:47;;;;;;;7.07;3.30;;;;;;;10.11;51.39;101962.03;5037368;28;20187;-78
2023/04/19 08:15:33;;;;;;;4.13;2.43;;;;;;;10.13;51.34;101935.66;5020508;28;20223;-77
2023/04/19 08:18:06;;;;;;;2.88;2.00;;;;;;;10.03;50.61;101949.38;5017226;28;20398;-80
2023/04/19 08:20:35;;;;;;;3.20;2.33;;;;;;;10.04;49.94;101940.25;5017423;28;20196;-78
2023/04/19 08:23:06;;;;;;;9.68;2.55;;;;;;;10.31;49.83;101945.25;5017674;28;20439;-78
2023/04/19 08:25:50;;;;;;;3.75;1.95;;;;;;;10.42;49.70;101942.16;5027955;28;20287;-79
2023/04/19 08:28:21;;;;;;;3.95;2.50;;;;;;;10.57;48.77;101939.56;5021052;28;20216;-79
2023/04/19 08:30:50;;;;;;;6.63;2.67;;;;;;;10.62;47.70;101931.75;5023129;28;20200;-77
2023/04/19 08:33:19;;;;;;;3.30;2.50;;;;;;;10.49;48.37;101938.75;5025093;28;20480;-79
2023/04/19 08:35:49;;;;;;;5.80;2.77;;;;;;;10.39;48.19;101934.41;5018207;28;20957;-79
2023/04/19 08:38:19;;;;;;;3.50;2.20;;;;;;;10.72;48.46;101935.09;5018664;28;20943;-78
2023/04/19 08:40:52;;;;;;;2.45;1.98;;;;;;;10.94;48.11;101948.84;5016804;28;20443;-77
2023/04/19 08:43:27;;;;;;;5.72;2.88;;;;;;;10.81;48.08;101939.44;5010179;28;20211;-78
2023/04/19 08:45:57;;;;;;;7.77;2.63;;;;;;;10.86;48.33;101923.50;5028384;28;20220;-78
2023/04/19 08:48:29;;;;;;;2.70;2.33;;;;;;;11.08;47.57;101923.69;5034448;28;20406;-78
2023/04/19 08:50:59;;;;;;;8.70;2.50;;;;;;;11.13;47.13;101905.03;5024524;28;20425;-79
2023/04/19 08:53:35;;;;;;;8.60;3.10;;;;;;;11.24;46.84;101920.84;5024451;28;20437;-80
2023/04/19 08:56:07;;;;;;;4.00;2.77;;;;;;;11.21;46.84;101923.91;5026570;28;20463;-78
2023/04/19 08:58:53;;;;;;;5.27;2.50;;;;;;;10.86;47.70;101909.94;5023941;28;20432;-79
2023/04/19 09:01:43;;;;;;;6.90;5.77;;;;;;;11.07;47.34;101900.34;5029383;28;20806;-77
2023/04/19 09:04:13;;;;;;;4.00;3.00;;;;;;;11.28;47.21;101911.31;5026734;28;20578;-78
2023/04/19 09:07:02;;;;;;;10.03;3.40;;;;;;;11.10;46.75;101911.63;5019354;28;20546;-76
2023/04/19 09:09:32;;;;;;;4.93;3.33;;;;;;;11.02;47.47;101903.59;5035318;28;20428;-77
2023/04/19 09:12:17;;;;;;;4.87;4.37;;;;;;;11.06;47.30;101901.34;5035953;28;21067;-78
2023/04/19 09:14:48;;;;;;;3.53;3.20;;;;;;;11.09;47.26;101899.09;5037975;28;20424;-78
2023/04/19 09:17:32;;;;;;;6.30;3.50;;;;;;;11.06;46.85;101898.63;5028054;28;20406;-78
2023/04/19 09:20:03;;;;;;;4.20;3.10;;;;;;;10.99;46.72;101892.28;5016318;28;20448;-79
2023/04/19 09:22:34;;;;;;;6.40;4.53;;;;;;;10.73;46.49;101882.63;5025514;28;20425;-79
2023/04/19 09:25:03;;;;;;;4.43;3.00;;;;;;;10.82;46.69;101880.69;5018052;28;20530;-78
2023/04/19 09:27:37;;;;;;;5.10;2.87;;;;;;;10.82;45.93;101886.13;5021458;28;20487;-78
2023/04/19 09:30:09;;;;;;;3.67;3.37;;;;;;;10.83;45.64;101894.06;5026229;28;20432;-79
2023/04/19 09:32:55;;;;;;;3.30;2.87;;;;;;;10.84;45.94;101873.25;5027005;28;20446;-79
2023/04/19 09:35:41;;;;;;;5.43;4.37;;;;;;;11.20;45.60;101868.03;5021331;28;20972;-78
2023/04/19 09:38:10;;;;;;;21.53;8.57;;;;;;;11.29;44.95;101872.34;5020412;28;20896;-80
2023/04/19 09:40:41;;;;;;;7.70;5.80;;;;;;;11.34;44.48;101861.81;5022575;28;20431;-78
2023/04/19 09:43:10;;;;;;;5.57;4.60;;;;;;;11.53;44.64;101858.56;5030464;28;20439;-79
2023/04/19 09:45:47;;;;;;;4.67;2.53;;;;;;;11.32;45.03;101850.34;5031725;28;20425;-77
2023/04/19 09:48:16;;;;;;;40.23;29.93;;;;;;;11.01;45.80;101846.88;5030535;28;20464;-78
2023/04/19 09:50:53;;;;;;;8.67;5.10;;;;;;;11.35;45.78;101844.53;5033831;28;20435;-80
2023/04/19 09:53:33;;;;;;;8.30;6.33;;;;;;;11.51;44.73;101844.38;5035350;28;20436;-78
2023/04/19 09:56:04;;;;;;;9.70;7.67;;;;;;;11.64;44.54;101827.47;5034306;28;20451;-78
2023/04/19 09:58:43;;;;;;;3.67;3.00;;;;;;;11.76;44.84;101832.25;5050248;28;20406;-77
2023/04/19 10:04:20;;;;;;;4.63;3.47;;;;;;;12.31;42.90;101820.03;5030149;28;20778;-79
2023/04/19 10:07:17;;;;;;;4.10;3.17;;;;;;;12.35;43.11;101834.03;5034492;28;20513;-77
2023/04/19 10:10:03;;;;;;;8.03;3.40;;;;;;;12.40;42.42;101835.16;5035099;28;20449;-77
2023/04/19 10:12:54;;;;;;;7.80;3.03;;;;;;;12.40;42.95;101813.44;5036218;28;20417;-77
2023/04/19 10:15:59;;;;;;;4.43;3.23;;;;;;;12.61;42.30;101827.06;5037652;28;20437;-78
2023/04/19 10:18:54;;;;;;;6.67;3.50;;;;;;;12.54;42.36;101828.84;5036294;28;20413;-77
2023/04/19 10:21:32;;;;;;;4.37;3.47;;;;;;;12.13;43.33;101808.75;5046946;28;20440;-78
2023/04/19 10:24:11;;;;;;;7.33;3.57;;;;;;;12.27;43.08;101816.00;5040582;28;20526;-77
2023/04/19 10:27:13;;;;;;;3.57;3.17;;;;;;;11.90;42.99;101816.19;5055604;28;20434;-77
2023/04/19 10:30:12;;;;;;;3.30;2.57;;;;;;;11.74;43.70;101801.78;5039422;28;20490;-76
2023/04/19 10:32:48;;;;;;;5.47;3.40;;;;;;;12.14;43.19;101808.56;5023498;28;20764;-77
2023/04/19 10:35:27;;;;;;;8.60;4.23;;;;;;;12.31;43.05;101811.03;5044305;28;20457;-76
2023/04/19 10:38:08;;;;;;;6.23;3.60;;;;;;;12.23;42.66;101806.56;5041412;28;20451;-79
2023/04/19 10:41:03;;;;;;;6.70;2.73;;;;;;;12.35;42.99;101807.75;5024405;28;20404;-79
2023/04/19 10:43:47;;;;;;;4.87;2.90;;;;;;;12.33;43.00;101790.84;5037806;28;20410;-79
2023/04/19 10:46:38;;;;;;;3.97;2.37;;;;;;;12.25;43.20;101798.25;5035388;28;20432;-78
2023/04/19 10:49:28;;;;;;;4.93;3.40;;;;;;;12.19;42.64;101805.28;5009956;28;20404;-78
2023/04/19 10:52:00;;;;;;;4.83;3.10;;;;;;;11.96;43.26;101793.69;5017859;28;20415;-77
2023/04/19 10:54:36;;;;;;;4.63;3.63;;;;;;;11.92;43.68;101797.81;5039073;28;20454;-77
2023/04/19 10:57:07;;;;;;;3.60;3.00;;;;;;;12.12;43.30;101798.91;5040108;28;20429;-78
2023/04/19 10:59:46;;;;;;;5.33;2.33;;;;;;;12.33;42.83;101796.25;5035083;28;20706;-77
2023/04/19 11:02:31;;;;;;;6.23;3.33;;;;;;;12.28;42.35;101797.88;5027566;28;20397;-79
2023/04/19 11:05:13;;;;;;;6.40;3.87;;;;;;;12.28;42.76;101793.28;5026267;28;20468;-79
2023/04/19 11:08:01;;;;;;;;;;;;;;;;;;;;;
2023/04/19 11:10:31;;;;;;;3.37;2.13;;;;;;;12.48;42.45;101785.34;5021660;28;20395;-78
2023/04/19 11:13:00;;;;;;;4.53;2.97;;;;;;;12.74;41.95;101785.59;5020202;28;20431;-78
2023/04/19 11:15:32;;;;;;;4.37;3.07;;;;;;;12.50;42.29;101780.56;5040210;28;20459;-79
2023/04/19 11:18:05;;;;;;;5.47;3.10;;;;;;;12.69;42.15;101776.34;5043627;28;20770;-80
2023/04/19 11:20:43;;;;;;;5.13;3.03;;;;;;;12.79;42.41;101776.84;5038739;28;20435;-77
2023/04/19 11:23:22;;;;;;;7.30;3.10;;;;;;;12.91;42.73;101778.03;5043700;28;20404;-77
2023/04/19 11:26:00;;;;;;;8.13;3.67;;;;;;;12.95;43.63;101772.00;5029487;28;20530;-78
2023/04/19 11:28:33;;;;;;;4.87;3.33;;;;;;;12.57;42.77;101776.88;5021624;28;20488;-79
2023/04/19 11:31:03;;;;;;;6.30;3.00;;;;;;;12.41;43.75;101768.97;5017707;28;20451;-79
2023/04/19 11:33:34;;;;;;;5.97;2.90;;;;;;;12.15;43.83;101771.41;5028394;28;20519;-79
2023/04/19 11:36:14;;;;;;;4.47;3.20;;;;;;;12.12;43.82;101760.94;5125561;22;20695;-70
2023/04/19 11:38:47;;;;;;;3.83;2.80;;;;;;;11.97;44.41;101768.25;5027866;28;20453;-70
2023/04/19 11:41:16;;;;;;;4.37;2.63;;;;;;;12.18;44.35;101755.59;5010280;28;20412;-71
2023/04/19 11:43:45;;;;;;;4.93;3.03;;;;;;;12.16;44.44;101762.22;5006961;28;20862;-70
2023/04/19 11:46:14;;;;;;;3.90;2.83;;;;;;;11.87;44.90;101759.56;5013452;28;20442;-70
2023/04/19 11:48:51;;;;;;;6.93;3.40;;;;;;;11.67;44.77;101778.28;5012986;28;20488;-70
2023/04/19 11:51:21;;;;;;;4.60;3.00;;;;;;;11.63;44.61;101761.53;5015328;28;20414;-69
2023/04/19 11:53:51;;;;;;;7.23;3.40;;;;;;;11.71;44.28;101756.00;5016790;28;20406;-70
2023/04/19 11:56:21;;;;;;;4.33;3.00;;;;;;;11.86;44.17;101747.06;5016541;28;20442;-69
2023/04/19 11:58:50;;;;;;;6.10;3.57;;;;;;;12.16;43.43;101754.94;5016089;28;20450;-71
2023/04/19 12:01:23;;;;;;;3.60;2.80;;;;;;;12.25;43.84;101755.66;5020164;28;20407;-69
2023/04/19 12:03:56;;;;;;;4.57;3.70;;;;;;;12.11;43.21;101742.97;5017282;28;20407;-69
2023/04/19 12:06:27;;;;;;;5.80;3.33;;;;;;;12.32;43.36;101734.84;5017469;28;20434;-71
2023/04/19 12:08:57;;;;;;;9.27;3.40;;;;;;;12.41;43.07;101730.97;5015270;28;20459;-71
2023/04/19 12:11:42;;;;;;;4.17;2.90;;;;;;;12.49;42.43;101738.97;5015890;28;20411;-69
2023/04/19 12:14:11;;;;;;;7.60;2.63;;;;;;;12.18;42.75;101724.91;5010456;28;20411;-68
2023/04/19 12:16:40;;;;;;;4.43;3.67;;;;;;;12.27;42.71;101720.19;5010005;28;20422;-69
2023/04/19 12:19:16;;;;;;;5.47;3.90;;;;;;;12.37;42.89;101720.69;5011156;28;20478;-69
2023/04/19 12:21:45;;;;;;;4.50;2.70;;;;;;;12.16;43.91;101721.53;5006182;28;20488;-70
2023/04/19 12:24:17;;;;;;;5.43;3.10;;;;;;;12.37;43.74;101710.69;5007410;28;20467;-69
2023/04/19 12:26:55;;;;;;;3.60;3.20;;;;;;;12.43;43.21;101715.34;5010677;28;20437;-70
2023/04/19 12:29:24;;;;;;;4.40;3.10;;;;;;;12.57;42.86;101711.72;5010217;28;20455;-69
2023/04/19 12:31:53;;;;;;;4.53;3.30;;;;;;;12.56;42.75;101699.16;5010816;28;20866;-69
2023/04/19 12:34:22;;;;;;;6.70;3.97;;;;;;;12.68;42.50;101709.50;5013787;28;20404;-67
2023/04/19 12:36:51;;;;;;;3.73;3.10;;;;;;;12.29;43.53;101699.13;5013315;28;21037;-69
2023/04/19 12:39:21;;;;;;;5.13;4.03;;;;;;;12.02;44.45;101700.72;5012414;28;20482;-71
2023/04/19 12:41:50;;;;;;;3.43;3.13;;;;;;;11.95;45.27;101694.38;5009939;28;20414;-71
2023/04/19 12:44:19;;;;;;;6.17;3.50;;;;;;;11.95;45.76;101692.53;5008263;28;20397;-68
2023/04/19 12:46:48;;;;;;;5.53;3.37;;;;;;;12.07;45.13;101695.56;5010388;28;21014;-69
2023/04/19 12:49:19;;;;;;;7.80;4.07;;;;;;;12.02;44.83;101698.00;5009636;28;20448;-70
2023/04/19 12:51:48;;;;;;;12.17;4.27;;;;;;;11.87;43.67;101697.19;5009934;28;20910;-70
2023/04/19 12:54:17;;;;;;;6.40;4.00;;;;;;;11.99;43.74;101677.53;5008523;28;20418;-71
2023/04/19 12:56:47;;;;;;;6.70;4.50;;;;;;;12.45;43.03;101677.13;5010502;28;20409;-70
2023/04/19 12:59:16;;;;;;;14.90;5.73;;;;;;;12.56;42.68;101677.44;5011960;28;20453;-70
2023/04/19 13:01:46;;;;;;;6.77;4.77;;;;;;;12.91;42.49;101669.34;5004782;28;20977;-70
2023/04/19 13:04:15;;;;;;;6.40;4.70;;;;;;;13.03;42.07;101662.31;5020849;28;20417;-71
2023/04/19 13:06:45;;;;;;;4.00;3.60;;;;;;;13.24;41.30;101659.56;5023812;28;20412;-72
2023/04/19 13:09:14;;;;;;;7.00;4.00;;;;;;;13.38;41.19;101655.00;5017809;28;20455;-69
2023/04/19 13:11:43;;;;;;;5.13;3.73;;;;;;;13.91;40.21;101648.72;5021407;28;20644;-70
2023/04/19 13:14:13;;;;;;;7.40;3.47;;;;;;;13.51;39.29;101643.38;5015061;28;20417;-71
2023/04/19 13:16:43;;;;;;;7.33;4.03;;;;;;;13.45;38.44;101635.00;5013135;28;20400;-70
2023/04/19 13:19:12;;;;;;;6.33;3.20;;;;;;;13.51;38.32;101629.78;5009830;28;20433;-71
2023/04/19 13:21:41;;;;;;;4.37;3.73;;;;;;;13.22;38.17;101617.28;5009642;28;20437;-69
2023/04/19 13:24:10;;;;;;;4.90;3.33;;;;;;;13.32;37.89;101617.75;5007455;28;20752;-71
2023/04/19 13:26:40;;;;;;;5.60;3.43;;;;;;;13.26;37.92;101608.56;5010959;28;20415;-69
2023/04/19 13:29:08;;;;;;;9.87;3.33;;;;;;;13.51;37.77;101616.19;5008822;28;20475;-70
2023/04/19 13:31:39;;;;;;;5.67;3.67;;;;;;;13.53;37.06;101614.09;5008089;28;20520;-69
2023/04/19 13:34:08;;;;;;;6.70;5.10;;;;;;;12.90;38.41;101630.47;5008752;28;20956;-69
2023/04/19 13:36:36;;;;;;;7.47;4.03;;;;;;;13.03;38.71;101627.00;5012275;28;20424;-69
2023/04/19 13:39:06;;;;;;;9.23;4.03;;;;;;;12.93;38.58;101629.22;5005988;28;20599;-71
2023/04/19 13:41:36;;;;;;;5.93;3.70;;;;;;;12.68;39.25;101619.91;5011154;28;20429;-70
2023/04/19 13:44:05;;;;;;;5.03;3.10;;;;;;;12.66;39.47;101624.66;5011505;28;20436;-69
2023/04/19 13:46:34;;;;;;;5.13;2.90;;;;;;;12.35;39.84;101615.03;5008616;28;20432;-71
2023/04/19 13:49:04;;;;;;;6.83;3.60;;;;;;;12.31;40.24;101616.47;5010458;28;20541;-71
2023/04/19 13:51:39;;;;;;;12.70;4.13;;;;;;;12.16;40.94;101610.28;5007631;28;20400;-68
2023/04/19 13:54:18;;;;;;;5.77;4.07;;;;;;;12.03;41.33;101621.00;5016376;28;20403;-70
2023/04/19 13:56:47;;;;;;;5.27;3.23;;;;;;;11.73;42.14;101631.97;5014459;28;20454;-71
2023/04/19 13:59:20;;;;;;;7.03;3.73;;;;;;;11.69;42.83;101614.38;5011907;28;20423;-70
2023/04/19 14:01:49;;;;;;;4.50;3.37;;;;;;;11.64;43.06;101622.25;5013970;28;20440;-71
2023/04/19 14:04:20;;;;;;;9.83;3.63;;;;;;;11.60;43.34;101615.53;5013057;28;20446;-69
2023/04/19 14:06:50;;;;;;;6.70;3.87;;;;;;;11.60;43.50;101598.44;5012453;28;20482;-69
2023/04/19 14:09:19;;;;;;;8.30;3.80;;;;;;;11.63;43.71;101598.88;5013136;28;20472;-69
2023/04/19 14:11:48;;;;;;;12.00;4.27;;;;;;;11.62;43.72;101608.03;5014328;28;20436;-70
2023/04/19 14:14:17;;;;;;;4.03;3.33;;;;;;;11.63;43.69;101601.59;5013155;28;20402;-69
2023/04/19 14:16:46;;;;;;;5.63;3.57;;;;;;;11.71;43.72;101597.94;5012034;28;20411;-72
2023/04/19 14:19:15;;;;;;;5.97;3.70;;;;;;;11.93;43.17;101588.78;5013375;28;20488;-71
2023/04/19 14:21:45;;;;;;;10.90;4.20;;;;;;;11.93;43.23;101586.06;5017002;28;20905;-71
2023/04/19 14:24:14;;;;;;;8.70;3.77;;;;;;;12.19;42.93;101596.34;5018819;28;20440;-71
2023/04/19 14:26:44;;;;;;;10.93;6.70;;;;;;;12.06;43.09;101577.22;5017318;28;20429;-69
2023/04/19 14:29:12;;;;;;;11.60;4.10;;;;;;;11.75;43.55;101582.97;5015397;28;20626;-70
2023/04/19 14:31:41;;;;;;;5.00;3.63;;;;;;;11.55;44.08;101581.91;5014330;28;20407;-69
2023/04/19 14:34:10;;;;;;;9.90;3.90;;;;;;;11.46;44.84;101573.06;5013596;28;20462;-70
2023/04/19 14:36:40;;;;;;;5.73;4.50;;;;;;;11.32;44.95;101568.50;5012255;28;20429;-68
2023/04/19 14:39:10;;;;;;;7.00;3.70;;;;;;;11.17;45.49;101575.81;5013790;28;20647;-71
2023/04/19 14:41:39;;;;;;;7.60;3.90;;;;;;;11.01;46.02;101576.03;5012309;28;20437;-70
2023/04/19 14:44:07;;;;;;;5.80;4.13;;;;;;;11.02;46.11;101561.47;5012164;28;20519;-70
2023/04/19 14:46:36;;;;;;;5.67;3.93;;;;;;;10.94;46.50;101567.81;5013306;28;20407;-71
2023/04/19 14:49:06;;;;;;;14.43;4.90;;;;;;;11.00;46.67;101563.50;5015982;28;20493;-69
2023/04/19 14:51:35;;;;;;;11.10;6.77;;;;;;;10.87;47.11;101573.16;5013729;28;20440;-71
2023/04/19 14:54:04;;;;;;;6.80;4.07;;;;;;;10.84;47.29;101559.16;5013522;28;20413;-68
2023/04/19 14:56:34;;;;;;;5.63;4.60;;;;;;;10.68;48.57;101565.59;5012306;28;20435;-71